sensor_id;sensor_type;location;lat;lon;timestamp;pressure;altitude;pressure_sealevel;temperature;humidity
53546;BME280;39432;51.902;10.844;2024-01-15T00:01:12;97612.56;;;1.89;100.00
53546;BME280;39432;51.902;10.844;2024-01-15T00:03:42;97614.13;;;1.84;100.00
53546;BME280;39432;51.902;10.844;2024-01-15T00:06:14;97616.75;;;1.79;100.00
53546;BME280;39432;51.902;10.844;2024-01-15T00:08:46;97618.38;;;1.80;100.00
53546;BME280;39432;51.902;10.844;2024-01-15T00:11:16;97622.13;;;1.79;100.00
53546;BME280;39432;51.902;10.844;2024-01-15T00:13:46;97620.03;;;1.81;100.00
53546;BME280;39432;51.902;10.844;2024-01-15T00:16:16;97625.22;;;1.88;100.00
53546;BME280;39432;51.902;10.844;2024-01-15T00:18:46;97609.34;;;1.92;100.00
53546;BME280;39432;51.902;10.844;2024-01-15T00:21:16;97611.47;;;1.90;100.00
53546;BME280;39432;51.902;10.844;2024-01-15T00:23:48;97608.84;;;1.95;100.00
53546;BME280;39432;51.902;10.844;2024-01-15T00:26:18;97617.00;;;2.00;100.00
53546;BME280;39432;51.902;10.844;2024-01-15T00:28:48;97607.34;;;2.04;100.00
53546;BME280;39432;51.902;10.844;2024-01-15T00:31:18;97612.75;;;2.04;100.00
53546;BME280;39432;51.902;10.844;2024-01-15T00:33:48;97608.97;;;2.05;100.00
53546;BME280;39432;51.902;10.844;2024-01-15T00:36:19;97601.63;;;2.00;100.00
53546;BME280;39432;51.902;10.844;2024-01-15T00:38:53;97609.09;;;1.93;100.00
53546;BME280;39432;51.902;10.844;2024-01-15T00:41:23;97611.00;;;1.93;100.00
53546;BME280;39432;51.902;10.844;2024-01-15T00:43:54;97592.34;;;1.91;100.00
53546;BME280;39432;51.902;10.844;2024-01-15T00:46:24;97589.38;;;1.88;100.00
53546;BME280;39432;51.902;10.844;2024-01-15T00:48:54;97592.63;;;1.90;100.00
53546;BME280;39432;51.902;10.844;2024-01-15T00:51:24;97596.44;;;1.94;100.00
53546;BME280;39432;51.902;10.844;2024-01-15T00:53:57;97598.56;;;1.92;100.00
53546;BME280;39432;51.902;10.844;2024-01-15T00:56:27;97599.63;;;1.91;100.00
53546;BME280;39432;51.902;10.844;2024-01-15T00:58:56;97604.47;;;1.89;100.00
53546;BME280;39432;51.902;10.844;2024-01-15T01:01:26;97595.13;;;1.74;100.00
53546;BME280;39432;51.902;10.844;2024-01-15T01:03:56;97614.22;;;1.51;100.00
53546;BME280;39432;51.902;10.844;2024-01-15T01:06:27;97621.09;;;1.42;100.00
53546;BME280;39432;51.902;10.844;2024-01-15T01:09:02;97627.81;;;1.39;100.00
53546;BME280;39432;51.902;10.844;2024-01-15T01:11:33;97638.13;;;1.47;100.00
53546;BME280;39432;51.902;10.844;2024-01-15T01:14:02;97647.94;;;1.37;100.00
53546;BME280;39432;51.902;10.844;2024-01-15T01:16:32;97650.72;;;1.42;100.00
53546;BME280;39432;51.902;10.844;2024-01-15T01:19:06;97646.97;;;1.43;100.00
53546;BME280;39432;51.902;10.844;2024-01-15T01:21:36;97652.94;;;1.45;100.00
53546;BME280;39432;51.902;10.844;2024-01-15T01:24:09;97640.09;;;1.52;100.00
53546;BME280;39432;51.902;10.844;2024-01-15T01:26:39;97649.47;;;1.66;100.00
53546;BME280;39432;51.902;10.844;2024-01-15T01:29:09;97630.78;;;1.60;100.00
53546;BME280;39432;51.902;10.844;2024-01-15T01:31:42;97638.69;;;1.66;100.00
53546;BME280;39432;51.902;10.844;2024-01-15T01:34:14;97638.81;;;1.76;100.00
53546;BME280;39432;51.902;10.844;2024-01-15T01:36:44;97624.75;;;1.74;100.00
53546;BME280;39432;51.902;10.844;2024-01-15T01:39:16;97621.59;;;1.77;100.00
53546;BME280;39432;51.902;10.844;2024-01-15T01:41:47;97609.72;;;1.78;100.00
53546;BME280;39432;51.902;10.844;2024-01-15T01:44:17;97606.47;;;1.76;100.00
53546;BME280;39432;51.902;10.844;2024-01-15T01:46:46;97604.75;;;1.70;100.00
53546;BME280;39432;51.902;10.844;2024-01-15T01:49:17;97607.16;;;1.67;100.00
53546;BME280;39432;51.902;10.844;2024-01-15T01:51:47;97604.81;;;1.75;100.00
53546;BME280;39432;51.902;10.844;2024-01-15T01:54:20;97603.59;;;1.61;100.00
53546;BME280;39432;51.902;10.844;2024-01-15T01:56:50;97609.16;;;1.54;100.00
53546;BME280;39432;51.902;10.844;2024-01-15T01:59:22;97622.94;;;1.58;100.00
53546;BME280;39432;51.902;10.844;2024-01-15T02:01:54;97620.41;;;1.51;100.00
53546;BME280;39432;51.902;10.844;2024-01-15T02:04:24;97622.63;;;1.54;100.00
53546;BME280;39432;51.902;10.844;2024-01-15T02:06:54;97621.09;;;1.42;100.00
53546;BME280;39432;51.902;10.844;2024-01-15T02:09:27;97616.22;;;1.39;100.00
53546;BME280;39432;51.902;10.844;2024-01-15T02:11:57;97611.63;;;1.39;100.00
53546;BME280;39432;51.902;10.844;2024-01-15T02:14:27;97614.25;;;1.34;100.00
53546;BME280;39432;51.902;10.844;2024-01-15T02:16:57;97608.63;;;1.36;100.00
53546;BME280;39432;51.902;10.844;2024-01-15T02:19:27;97604.22;;;1.29;100.00
53546;BME280;39432;51.902;10.844;2024-01-15T02:21:57;97589.47;;;1.32;100.00
53546;BME280;39432;51.902;10.844;2024-01-15T02:24:29;97575.66;;;1.28;100.00
53546;BME280;39432;51.902;10.844;2024-01-15T02:27:00;97568.06;;;1.25;100.00
53546;BME280;39432;51.902;10.844;2024-01-15T02:29:30;97560.25;;;1.24;100.00
53546;BME280;39432;51.902;10.844;2024-01-15T02:32:04;97563.69;;;1.19;100.00
53546;BME280;39432;51.902;10.844;2024-01-15T02:34:34;97555.94;;;1.23;100.00
53546;BME280;39432;51.902;10.844;2024-01-15T02:37:04;97540.50;;;1.18;100.00
53546;BME280;39432;51.902;10.844;2024-01-15T02:39:36;97554.53;;;1.20;100.00
53546;BME280;39432;51.902;10.844;2024-01-15T02:42:06;97543.84;;;1.25;100.00
53546;BME280;39432;51.902;10.844;2024-01-15T02:44:36;97532.66;;;1.34;100.00
53546;BME280;39432;51.902;10.844;2024-01-15T02:47:06;97535.09;;;1.35;100.00
53546;BME280;39432;51.902;10.844;2024-01-15T02:49:36;97542.34;;;1.35;100.00
53546;BME280;39432;51.902;10.844;2024-01-15T02:52:06;97534.53;;;1.33;100.00
53546;BME280;39432;51.902;10.844;2024-01-15T02:54:39;97531.31;;;1.36;100.00
53546;BME280;39432;51.902;10.844;2024-01-15T02:57:08;97529.63;;;1.52;100.00
53546;BME280;39432;51.902;10.844;2024-01-15T02:59:38;97529.16;;;1.55;100.00
53546;BME280;39432;51.902;10.844;2024-01-15T03:02:08;97528.44;;;1.65;100.00
53546;BME280;39432;51.902;10.844;2024-01-15T03:04:42;97521.13;;;1.60;100.00
53546;BME280;39432;51.902;10.844;2024-01-15T03:07:12;97520.72;;;1.73;100.00
53546;BME280;39432;51.902;10.844;2024-01-15T03:09:45;97514.72;;;1.66;100.00
53546;BME280;39432;51.902;10.844;2024-01-15T03:12:15;97514.19;;;1.69;100.00
53546;BME280;39432;51.902;10.844;2024-01-15T03:14:45;97514.72;;;1.66;100.00
53546;BME280;39432;51.902;10.844;2024-01-15T03:17:15;97515.34;;;1.73;100.00
53546;BME280;39432;51.902;10.844;2024-01-15T03:19:45;97519.22;;;1.82;100.00
53546;BME280;39432;51.902;10.844;2024-01-15T03:22:16;97502.25;;;1.82;100.00
53546;BME280;39432;51.902;10.844;2024-01-15T03:24:49;97490.31;;;1.78;100.00
53546;BME280;39432;51.902;10.844;2024-01-15T03:27:19;97497.13;;;1.85;100.00
53546;BME280;39432;51.902;10.844;2024-01-15T03:29:49;97502.03;;;1.89;100.00
53546;BME280;39432;51.902;10.844;2024-01-15T03:32:19;97496.13;;;1.92;100.00
53546;BME280;39432;51.902;10.844;2024-01-15T03:34:48;97507.97;;;1.91;100.00
53546;BME280;39432;51.902;10.844;2024-01-15T03:37:19;97492.38;;;1.93;100.00
53546;BME280;39432;51.902;10.844;2024-01-15T03:39:52;97503.16;;;1.93;100.00
53546;BME280;39432;51.902;10.844;2024-01-15T03:42:22;97498.81;;;1.92;100.00
53546;BME280;39432;51.902;10.844;2024-01-15T03:44:51;97496.97;;;1.97;100.00
53546;BME280;39432;51.902;10.844;2024-01-15T03:47:21;97491.84;;;1.96;100.00
53546;BME280;39432;51.902;10.844;2024-01-15T03:49:51;97487.84;;;1.98;100.00
53546;BME280;39432;51.902;10.844;2024-01-15T03:52:21;97503.66;;;1.90;100.00
53546;BME280;39432;51.902;10.844;2024-01-15T03:54:54;97497.75;;;1.93;100.00
53546;BME280;39432;51.902;10.844;2024-01-15T03:57:24;97497.56;;;1.99;100.00
53546;BME280;39432;51.902;10.844;2024-01-15T03:59:54;97494.06;;;1.99;100.00
53546;BME280;39432;51.902;10.844;2024-01-15T04:02:23;97502.41;;;2.02;100.00
53546;BME280;39432;51.902;10.844;2024-01-15T04:04:53;97505.13;;;2.02;100.00
53546;BME280;39432;51.902;10.844;2024-01-15T04:07:23;97495.88;;;1.93;100.00
53546;BME280;39432;51.902;10.844;2024-01-15T04:09:56;97497.34;;;1.79;100.00
53546;BME280;39432;51.902;10.844;2024-01-15T04:12:26;97502.41;;;1.75;100.00
53546;BME280;39432;51.902;10.844;2024-01-15T04:14:57;97493.88;;;1.83;100.00
53546;BME280;39432;51.902;10.844;2024-01-15T04:17:27;97499.00;;;1.85;100.00
53546;BME280;39432;51.902;10.844;2024-01-15T04:19:57;97501.16;;;1.83;100.00
53546;BME280;39432;51.902;10.844;2024-01-15T04:22:27;97488.66;;;1.99;100.00
53546;BME280;39432;51.902;10.844;2024-01-15T04:24:59;97503.22;;;2.03;100.00
53546;BME280;39432;51.902;10.844;2024-01-15T04:27:29;97496.94;;;1.92;100.00
53546;BME280;39432;51.902;10.844;2024-01-15T04:30:00;97506.91;;;1.92;100.00
53546;BME280;39432;51.902;10.844;2024-01-15T04:32:30;97497.78;;;1.98;100.00
53546;BME280;39432;51.902;10.844;2024-01-15T04:34:59;97500.47;;;1.98;100.00
53546;BME280;39432;51.902;10.844;2024-01-15T04:37:29;97513.41;;;1.96;100.00
53546;BME280;39432;51.902;10.844;2024-01-15T04:40:02;97508.34;;;1.99;100.00
53546;BME280;39432;51.902;10.844;2024-01-15T04:42:32;97513.41;;;1.96;100.00
53546;BME280;39432;51.902;10.844;2024-01-15T04:45:03;97486.50;;;2.01;100.00
53546;BME280;39432;51.902;10.844;2024-01-15T04:47:33;97485.44;;;2.02;100.00
53546;BME280;39432;51.902;10.844;2024-01-15T04:50:04;97495.97;;;2.03;100.00
53546;BME280;39432;51.902;10.844;2024-01-15T04:52:34;97504.06;;;2.03;100.00
53546;BME280;39432;51.902;10.844;2024-01-15T04:55:07;97498.41;;;2.05;100.00
53546;BME280;39432;51.902;10.844;2024-01-15T04:57:37;97492.22;;;2.04;100.00
53546;BME280;39432;51.902;10.844;2024-01-15T05:00:08;97502.25;;;2.09;100.00
53546;BME280;39432;51.902;10.844;2024-01-15T05:02:39;97516.88;;;2.18;100.00
53546;BME280;39432;51.902;10.844;2024-01-15T05:05:09;97524.31;;;2.06;100.00
53546;BME280;39432;51.902;10.844;2024-01-15T05:07:39;97529.16;;;2.31;100.00
53546;BME280;39432;51.902;10.844;2024-01-15T05:10:11;97526.03;;;2.17;100.00
53546;BME280;39432;51.902;10.844;2024-01-15T05:12:41;97519.50;;;2.13;100.00
53546;BME280;39432;51.902;10.844;2024-01-15T05:15:11;97518.09;;;2.05;100.00
53546;BME280;39432;51.902;10.844;2024-01-15T05:17:41;97511.91;;;2.05;100.00
53546;BME280;39432;51.902;10.844;2024-01-15T05:20:11;97508.94;;;2.06;100.00
53546;BME280;39432;51.902;10.844;2024-01-15T05:22:41;97510.56;;;2.07;100.00
53546;BME280;39432;51.902;10.844;2024-01-15T05:25:14;97509.75;;;2.07;100.00
53546;BME280;39432;51.902;10.844;2024-01-15T05:27:44;97522.22;;;2.13;100.00
53546;BME280;39432;51.902;10.844;2024-01-15T05:30:14;97519.50;;;2.13;100.00
53546;BME280;39432;51.902;10.844;2024-01-15T05:32:44;97511.47;;;2.18;100.00
53546;BME280;39432;51.902;10.844;2024-01-15T05:35:14;97522.78;;;2.15;100.00
53546;BME280;39432;51.902;10.844;2024-01-15T05:37:45;97511.47;;;2.18;100.00
53546;BME280;39432;51.902;10.844;2024-01-15T05:40:18;97514.44;;;2.17;100.00
53546;BME280;39432;51.902;10.844;2024-01-15T05:42:48;97504.47;;;2.17;100.00
53546;BME280;39432;51.902;10.844;2024-01-15T05:45:18;97506.09;;;2.18;100.00
53546;BME280;39432;51.902;10.844;2024-01-15T05:47:48;97501.25;;;2.20;100.00
53546;BME280;39432;51.902;10.844;2024-01-15T05:50:18;97501.16;;;2.10;100.00
53546;BME280;39432;51.902;10.844;2024-01-15T05:52:48;97509.34;;;2.20;100.00
53546;BME280;39432;51.902;10.844;2024-01-15T05:55:21;97508.19;;;2.11;100.00
53546;BME280;39432;51.902;10.844;2024-01-15T05:57:51;97511.47;;;2.18;100.00
53546;BME280;39432;51.902;10.844;2024-01-15T06:00:21;97501.72;;;2.12;100.00
53546;BME280;39432;51.902;10.844;2024-01-15T06:02:51;97509.91;;;2.22;100.00
53546;BME280;39432;51.902;10.844;2024-01-15T06:05:21;97508.22;;;2.16;100.00
53546;BME280;39432;51.902;10.844;2024-01-15T06:07:51;97501.50;;;2.19;100.00
53546;BME280;39432;51.902;10.844;2024-01-15T06:10:24;97503.88;;;2.10;100.00
53546;BME280;39432;51.902;10.844;2024-01-15T06:12:54;97489.81;;;2.08;100.00
53546;BME280;39432;51.902;10.844;2024-01-15T06:15:24;97496.84;;;2.09;100.00
53546;BME280;39432;51.902;10.844;2024-01-15T06:17:54;97498.97;;;2.07;100.00
53546;BME280;39432;51.902;10.844;2024-01-15T06:20:24;97504.06;;;2.03;100.00
53546;BME280;39432;51.902;10.844;2024-01-15T06:22:53;97504.34;;;2.07;100.00
53546;BME280;39432;51.902;10.844;2024-01-15T06:25:26;97500.81;;;2.01;100.00
53546;BME280;39432;51.902;10.844;2024-01-15T06:27:56;97503.75;;;2.00;100.00
53546;BME280;39432;51.902;10.844;2024-01-15T06:30:26;97510.72;;;1.96;100.00
53546;BME280;39432;51.902;10.844;2024-01-15T06:32:57;97509.09;;;1.95;100.00
53546;BME280;39432;51.902;10.844;2024-01-15T06:35:27;97502.63;;;1.96;100.00
53546;BME280;39432;51.902;10.844;2024-01-15T06:37:57;97502.41;;;1.75;100.00
53546;BME280;39432;51.902;10.844;2024-01-15T06:40:29;97499.44;;;1.72;100.00
53546;BME280;39432;51.902;10.844;2024-01-15T06:42:59;97494.28;;;1.70;100.00
53546;BME280;39432;51.902;10.844;2024-01-15T06:45:29;97496.09;;;1.65;100.00
53546;BME280;39432;51.902;10.844;2024-01-15T06:47:59;97504.00;;;1.71;100.00
53546;BME280;39432;51.902;10.844;2024-01-15T06:50:29;97493.97;;;1.67;100.00
53546;BME280;39432;51.902;10.844;2024-01-15T06:52:59;97504.25;;;1.70;100.00
53546;BME280;39432;51.902;10.844;2024-01-15T06:55:31;97511.56;;;1.74;100.00
53546;BME280;39432;51.902;10.844;2024-01-15T06:58:01;97508.66;;;1.76;100.00
53546;BME280;39432;51.902;10.844;2024-01-15T07:00:31;97494.84;;;1.72;100.00
53546;BME280;39432;51.902;10.844;2024-01-15T07:03:01;97500.78;;;1.74;100.00
53546;BME280;39432;51.902;10.844;2024-01-15T07:05:32;97501.97;;;1.83;100.00
53546;BME280;39432;51.902;10.844;2024-01-15T07:08:04;97494.59;;;1.74;100.00
53546;BME280;39432;51.902;10.844;2024-01-15T07:10:36;97482.78;;;1.80;100.00
53546;BME280;39432;51.902;10.844;2024-01-15T07:13:06;97500.25;;;1.72;100.00
53546;BME280;39432;51.902;10.844;2024-01-15T07:15:37;97498.69;;;1.76;100.00
53546;BME280;39432;51.902;10.844;2024-01-15T07:18:07;97496.97;;;1.70;100.00
53546;BME280;39432;51.902;10.844;2024-01-15T07:20:37;97501.00;;;1.95;100.00
53546;BME280;39432;51.902;10.844;2024-01-15T07:23:07;97511.78;;;1.95;100.00
53546;BME280;39432;51.902;10.844;2024-01-15T07:25:39;97523.38;;;1.95;100.00
53546;BME280;39432;51.902;10.844;2024-01-15T07:28:09;97514.06;;;2.08;100.00
53546;BME280;39432;51.902;10.844;2024-01-15T07:30:39;97526.94;;;2.01;100.00
53546;BME280;39432;51.902;10.844;2024-01-15T07:33:09;97511.94;;;2.10;100.00
53546;BME280;39432;51.902;10.844;2024-01-15T07:35:39;97513.56;;;2.11;100.00
53546;BME280;39432;51.902;10.844;2024-01-15T07:38:09;97516.38;;;2.21;100.00
53546;BME280;39432;51.902;10.844;2024-01-15T07:40:42;97518.50;;;2.19;100.00
53546;BME280;39432;51.902;10.844;2024-01-15T07:43:16;97527.22;;;2.26;100.00
53546;BME280;39432;51.902;10.844;2024-01-15T07:45:46;97534.69;;;2.19;100.00
53546;BME280;39432;51.902;10.844;2024-01-15T07:48:16;97537.38;;;2.19;100.00
53546;BME280;39432;51.902;10.844;2024-01-15T07:50:46;97538.97;;;2.15;100.00
53546;BME280;39432;51.902;10.844;2024-01-15T07:53:16;97534.78;;;2.29;100.00
53546;BME280;39432;51.902;10.844;2024-01-15T07:55:49;97536.88;;;2.22;100.00
53546;BME280;39432;51.902;10.844;2024-01-15T07:58:19;97533.38;;;2.22;100.00
53546;BME280;39432;51.902;10.844;2024-01-15T08:00:48;97547.06;;;2.15;100.00
53546;BME280;39432;51.902;10.844;2024-01-15T08:03:19;97541.59;;;2.37;100.00
53546;BME280;39432;51.902;10.844;2024-01-15T08:05:49;97540.69;;;2.26;100.00
53546;BME280;39432;51.902;10.844;2024-01-15T08:08:21;97545.00;;;2.27;100.00
53546;BME280;39432;51.902;10.844;2024-01-15T08:10:53;97546.63;;;2.28;100.00
53546;BME280;39432;51.902;10.844;2024-01-15T08:13:26;97552.91;;;2.34;100.00
53546;BME280;39432;51.902;10.844;2024-01-15T08:15:57;97540.97;;;2.30;100.00
53546;BME280;39432;51.902;10.844;2024-01-15T08:18:29;97543.44;;;2.31;100.00
53546;BME280;39432;51.902;10.844;2024-01-15T08:20:59;97544.09;;;2.44;100.00
53546;BME280;39432;51.902;10.844;2024-01-15T08:23:29;97541.06;;;2.40;100.00
53546;BME280;39432;51.902;10.844;2024-01-15T08:26:02;97543.94;;;2.28;100.00
53546;BME280;39432;51.902;10.844;2024-01-15T08:28:32;97550.72;;;2.31;100.00
53546;BME280;39432;51.902;10.844;2024-01-15T08:31:05;97544.25;;;2.32;100.00
53546;BME280;39432;51.902;10.844;2024-01-15T08:33:35;97546.69;;;2.33;100.00
53546;BME280;39432;51.902;10.844;2024-01-15T08:36:06;97554.13;;;2.21;100.00
53546;BME280;39432;51.902;10.844;2024-01-15T08:38:36;97553.31;;;2.48;100.00
53546;BME280;39432;51.902;10.844;2024-01-15T08:41:08;97553.13;;;2.27;100.00
53546;BME280;39432;51.902;10.844;2024-01-15T08:43:38;97543.44;;;2.31;100.00
53546;BME280;39432;51.902;10.844;2024-01-15T08:46:08;97545.16;;;2.43;100.00
53546;BME280;39432;51.902;10.844;2024-01-15T08:48:38;97533.78;;;2.41;100.00
53546;BME280;39432;51.902;10.844;2024-01-15T08:51:08;97533.88;;;2.51;100.00
53546;BME280;39432;51.902;10.844;2024-01-15T08:53:38;97540.44;;;2.60;100.00
53546;BME280;39432;51.902;10.844;2024-01-15T08:56:10;97537.19;;;2.58;100.00
53546;BME280;39432;51.902;10.844;2024-01-15T08:58:40;97541.69;;;2.47;100.00
53546;BME280;39432;51.902;10.844;2024-01-15T09:01:10;97530.88;;;2.42;100.00
53546;BME280;39432;51.902;10.844;2024-01-15T09:03:40;97537.16;;;2.53;100.00
53546;BME280;39432;51.902;10.844;2024-01-15T09:06:11;97527.81;;;2.33;100.00
53546;BME280;39432;51.902;10.844;2024-01-15T09:08:41;97532.69;;;2.36;100.00
53546;BME280;39432;51.902;10.844;2024-01-15T09:11:13;97523.06;;;2.46;100.00
53546;BME280;39432;51.902;10.844;2024-01-15T09:13:43;97534.47;;;2.53;100.00
53546;BME280;39432;51.902;10.844;2024-01-15T09:16:13;97538.66;;;2.38;100.00
53546;BME280;39432;51.902;10.844;2024-01-15T09:18:55;97539.72;;;2.37;100.00
53546;BME280;39432;51.902;10.844;2024-01-15T09:21:26;97542.75;;;2.19;100.00
53546;BME280;39432;51.902;10.844;2024-01-15T09:23:56;97538.72;;;2.17;100.00
53546;BME280;39432;51.902;10.844;2024-01-15T09:26:28;97558.91;;;2.14;100.00
53546;BME280;39432;51.902;10.844;2024-01-15T09:28:58;97555.91;;;1.62;100.00
53546;BME280;39432;51.902;10.844;2024-01-15T09:31:28;97575.94;;;1.49;100.00
53546;BME280;39432;51.902;10.844;2024-01-15T09:33:59;97592.19;;;1.54;100.00
53546;BME280;39432;51.902;10.844;2024-01-15T09:36:29;97592.00;;;1.61;100.00
53546;BME280;39432;51.902;10.844;2024-01-15T09:38:59;97602.03;;;1.65;100.00
53546;BME280;39432;51.902;10.844;2024-01-15T09:41:31;97609.41;;;1.75;100.00
53546;BME280;39432;51.902;10.844;2024-01-15T09:44:02;97611.00;;;1.93;100.00
53546;BME280;39432;51.902;10.844;2024-01-15T09:46:33;97599.94;;;1.94;100.00
53546;BME280;39432;51.902;10.844;2024-01-15T09:49:03;97606.22;;;2.00;100.00
53546;BME280;39432;51.902;10.844;2024-01-15T09:51:34;97606.34;;;2.10;100.00
53546;BME280;39432;51.902;10.844;2024-01-15T09:54:05;97597.66;;;2.08;100.00
53546;BME280;39432;51.902;10.844;2024-01-15T09:56:38;97594.97;;;2.08;100.00
53546;BME280;39432;51.902;10.844;2024-01-15T09:59:08;97582.63;;;2.12;100.00
53546;BME280;39432;51.902;10.844;2024-01-15T10:01:39;97578.28;;;2.11;100.00
53546;BME280;39432;51.902;10.844;2024-01-15T10:04:11;97574.09;;;2.20;100.00
53546;BME280;39432;51.902;10.844;2024-01-15T10:06:44;97581.41;;;2.25;100.00
53546;BME280;39432;51.902;10.844;2024-01-15T10:09:15;97568.16;;;2.23;100.00
53546;BME280;39432;51.902;10.844;2024-01-15T10:11:47;97565.94;;;2.15;100.00
53546;BME280;39432;51.902;10.844;2024-01-15T10:14:17;97566.13;;;2.35;100.00
53546;BME280;39432;51.902;10.844;2024-01-15T10:16:47;97580.69;;;2.34;100.00
53546;BME280;39432;51.902;10.844;2024-01-15T10:19:17;97565.09;;;2.42;100.00
53546;BME280;39432;51.902;10.844;2024-01-15T10:21:47;97555.97;;;2.43;100.00
53546;BME280;39432;51.902;10.844;2024-01-15T10:24:18;97557.63;;;2.49;100.00
53546;BME280;39432;51.902;10.844;2024-01-15T10:26:51;97562.84;;;2.60;100.00
53546;BME280;39432;51.902;10.844;2024-01-15T10:29:20;97553.47;;;2.68;100.00
53546;BME280;39432;51.902;10.844;2024-01-15T10:31:50;97552.97;;;2.71;100.00
53546;BME280;39432;51.902;10.844;2024-01-15T10:34:21;97550.34;;;2.49;100.00
53546;BME280;39432;51.902;10.844;2024-01-15T10:36:51;97547.16;;;2.57;100.00
53546;BME280;39432;51.902;10.844;2024-01-15T10:39:22;97533.44;;;2.59;100.00
53546;BME280;39432;51.902;10.844;2024-01-15T10:41:55;97551.34;;;2.70;100.00
53546;BME280;39432;51.902;10.844;2024-01-15T10:44:25;97543.88;;;2.82;100.00
53546;BME280;39432;51.902;10.844;2024-01-15T10:46:55;97537.34;;;2.78;100.00
53546;BME280;39432;51.902;10.844;2024-01-15T10:49:26;97539.03;;;2.89;100.00
53546;BME280;39432;51.902;10.844;2024-01-15T10:52:00;97535.72;;;2.77;100.00
53546;BME280;39432;51.902;10.844;2024-01-15T10:54:31;97534.59;;;2.73;100.00
53546;BME280;39432;51.902;10.844;2024-01-15T10:57:04;97533.13;;;2.93;100.00
53546;BME280;39432;51.902;10.844;2024-01-15T10:59:36;97526.16;;;3.02;100.00
53546;BME280;39432;51.902;10.844;2024-01-15T11:02:06;97522.38;;;2.98;100.00
53546;BME280;39432;51.902;10.844;2024-01-15T11:04:37;97528.41;;;3.15;100.00
53546;BME280;39432;51.902;10.844;2024-01-15T11:07:07;97515.16;;;3.08;100.00
53546;BME280;39432;51.902;10.844;2024-01-15T11:09:38;97521.13;;;3.15;100.00
53546;BME280;39432;51.902;10.844;2024-01-15T11:12:13;97522.25;;;3.20;100.00
53546;BME280;39432;51.902;10.844;2024-01-15T11:14:45;97521.19;;;3.26;100.00
53546;BME280;39432;51.902;10.844;2024-01-15T11:17:16;97523.09;;;3.30;100.00
53546;BME280;39432;51.902;10.844;2024-01-15T11:19:48;97521.50;;;3.39;100.00
53546;BME280;39432;51.902;10.844;2024-01-15T11:22:49;97521.47;;;3.29;100.00
53546;BME280;39432;51.902;10.844;2024-01-15T11:25:19;97532.31;;;2.92;100.00
53546;BME280;39432;51.902;10.844;2024-01-15T11:27:52;97540.09;;;2.83;100.00
53546;BME280;39432;51.902;10.844;2024-01-15T11:30:25;97547.03;;;2.74;100.00
53546;BME280;39432;51.902;10.844;2024-01-15T11:32:55;97539.22;;;2.78;100.00
53546;BME280;39432;51.902;10.844;2024-01-15T11:35:48;97531.22;;;2.88;100.00
53546;BME280;39432;51.902;10.844;2024-01-15T11:38:28;97525.38;;;2.64;100.00
53546;BME280;39432;51.902;10.844;2024-01-15T11:40:58;97530.25;;;2.67;100.00
53546;BME280;39432;51.902;10.844;2024-01-15T11:43:32;97528.47;;;2.83;100.00
53546;BME280;39432;51.902;10.844;2024-01-15T11:46:02;97521.72;;;2.85;100.00
53546;BME280;39432;51.902;10.844;2024-01-15T11:48:42;97542.47;;;2.80;100.00
53546;BME280;39432;51.902;10.844;2024-01-15T11:51:17;97518.97;;;2.75;100.00
53546;BME280;39432;51.902;10.844;2024-01-15T11:53:51;97532.63;;;2.63;100.00
53546;BME280;39432;51.902;10.844;2024-01-15T11:56:25;97528.50;;;2.51;100.00
53546;BME280;39432;51.902;10.844;2024-01-15T11:58:58;97519.81;;;2.44;100.00
53546;BME280;39432;51.902;10.844;2024-01-15T12:01:31;97521.97;;;2.47;100.00
53546;BME280;39432;51.902;10.844;2024-01-15T12:04:02;97524.22;;;2.55;100.00
53546;BME280;39432;51.902;10.844;2024-01-15T12:06:32;97534.16;;;2.49;100.00
53546;BME280;39432;51.902;10.844;2024-01-15T12:09:06;97524.19;;;2.50;100.00
53546;BME280;39432;51.902;10.844;2024-01-15T12:11:37;97513.47;;;2.60;100.00
53546;BME280;39432;51.902;10.844;2024-01-15T12:14:13;97519.13;;;2.63;100.00
53546;BME280;39432;51.902;10.844;2024-01-15T12:16:43;97515.09;;;2.61;100.00
53546;BME280;39432;51.902;10.844;2024-01-15T12:19:13;97529.78;;;2.75;100.00
53546;BME280;39432;51.902;10.844;2024-01-15T12:21:44;97525.97;;;2.71;100.00
53546;BME280;39432;51.902;10.844;2024-01-15T12:24:16;97517.16;;;2.86;100.00
53546;BME280;39432;51.902;10.844;2024-01-15T12:26:46;97520.69;;;2.86;100.00
53546;BME280;39432;51.902;10.844;2024-01-15T12:29:20;97527.09;;;2.75;100.00
53546;BME280;39432;51.902;10.844;2024-01-15T12:31:50;97521.88;;;2.31;100.00
53546;BME280;39432;51.902;10.844;2024-01-15T12:34:20;97528.97;;;2.43;100.00
53546;BME280;39432;51.902;10.844;2024-01-15T12:36:50;97525.47;;;2.47;100.00
53546;BME280;39432;51.902;10.844;2024-01-15T12:39:20;97512.25;;;2.46;100.00
53546;BME280;39432;51.902;10.844;2024-01-15T12:41:51;97518.19;;;2.43;100.00
53546;BME280;39432;51.902;10.844;2024-01-15T12:44:23;97522.91;;;2.30;100.00
53546;BME280;39432;51.902;10.844;2024-01-15T12:46:53;97518.31;;;2.26;100.00
53546;BME280;39432;51.902;10.844;2024-01-15T12:49:24;97510.53;;;2.34;100.00
53546;BME280;39432;51.902;10.844;2024-01-15T12:51:54;97518.69;;;2.40;100.00
53546;BME280;39432;51.902;10.844;2024-01-15T12:54:24;97514.41;;;2.44;100.00
53546;BME280;39432;51.902;10.844;2024-01-15T12:56:54;97522.19;;;2.40;100.00
53546;BME280;39432;51.902;10.844;2024-01-15T12:59:27;97524.09;;;2.40;100.00
53546;BME280;39432;51.902;10.844;2024-01-15T13:01:56;97525.66;;;2.35;100.00
53546;BME280;39432;51.902;10.844;2024-01-15T13:04:27;97512.97;;;2.36;100.00
53546;BME280;39432;51.902;10.844;2024-01-15T13:06:57;97504.06;;;2.35;100.00
53546;BME280;39432;51.902;10.844;2024-01-15T13:09:27;97514.81;;;2.30;100.00